Home > Products > Valid Products > TAF

000
FTUS42 KKEY 211100
TAFMTH
TAF
KMTH 211140Z 2112/2212 12005KT P6SM SCT025 SCT100
     FM211500 14008KT P6SM SCT025 SCT100=



000
FTUS42 KKEY 211100
TAFEYW
TAF
KEYW 211140Z 2112/2212 11007KT P6SM SCT025 SCT100
     FM211500 14010KT P6SM SCT025 SCT100=



000
FTUS42 KKEY 211100
TAFEYW
TAF
KEYW 211140Z 2112/2212 11007KT P6SM SCT025 SCT100
     FM211500 14010KT P6SM SCT025 SCT100=



000
FTUS42 KKEY 210800 AAA
TAFEYW
TAF AMD
KEYW 210845Z 2109/2206 11007KT P6SM SCT025 SCT100
     FM211200 12010KT P6SM SCT025 SCT100 BKN250=



000
FTUS42 KKEY 210800 AAA
TAFMTH
TAF AMD
KMTH 210845Z 2109/2206 VRB06KT P6SM SCT025 SCT100
     FM211400 12008KT P6SM SCT025 SCT100 BKN250=



000
FTUS42 KKEY 210800 AAA
TAFEYW
TAF AMD
KEYW 210845Z 2109/2206 11007KT P6SM SCT025 SCT100
     FM211200 12010KT P6SM SCT025 SCT100 BKN250=



000
FTUS42 KKEY 210500
TAFEYW
TAF
KEYW 210533Z 2106/2206 11005KT P6SM SCT020 SCT100
     FM211200 12010KT P6SM SCT020 SCT100 BKN250=



000
FTUS42 KKEY 210500
TAFEYW
TAF
KEYW 210533Z 2106/2206 11005KT P6SM SCT020 SCT100
     FM211200 12010KT P6SM SCT020 SCT100 BKN250=



000
FTUS42 KKEY 210500
TAFMTH
TAF
KMTH 210533Z 2106/2206 VRB06KT P6SM SCT020 SCT100
     FM211200 12008KT P6SM SCT020 SCT100 BKN250=



000
FTUS42 KKEY 210300 AAA
TAFEYW
TAF AMD
KEYW 210352Z 2104/2124 11005KT P6SM FEW022 SCT080
     FM211000 12009KT P6SM SCT018 BKN030=



000
FTUS42 KKEY 210300 AAA
TAFMTH
TAF AMD
KMTH 210352Z 2104/2124 11003KT P6SM SCT022 SCT080
     FM211200 12007KT P6SM SCT018 BKN030=



000
FTUS42 KKEY 210300 AAA
TAFEYW
TAF AMD
KEYW 210352Z 2104/2124 11005KT P6SM FEW022 SCT080
     FM211000 12009KT P6SM SCT018 BKN030=



000
FTUS42 KKEY 202300
TAFMTH
TAF
KMTH 202320Z 2100/2124 11003KT P6SM SCT022 SCT080
     FM211200 12007KT P6SM SCT018 BKN030=



000
FTUS42 KKEY 202300
TAFEYW
TAF
KEYW 202320Z 2100/2124 13007KT P6SM SCT022 SCT080
     FM211200 12009KT P6SM SCT018 BKN030=



000
FTUS42 KKEY 202300
TAFEYW
TAF
KEYW 202320Z 2100/2124 13007KT P6SM SCT022 SCT080
     FM211200 12009KT P6SM SCT018 BKN030=



000
FTUS42 KKEY 201700
TAFEYW
TAF
KEYW 201722Z 2018/2118 13010KT P6SM SCT022 SCT080
     FM210200 11008KT P6SM SCT020 BKN080=



000
FTUS42 KKEY 201700
TAFMTH
TAF
KMTH 201722Z 2018/2118 14006KT P6SM SCT022 SCT080
     FM210200 11005KT P6SM SCT020 BKN080=



000
FTUS42 KKEY 201700
TAFEYW
TAF
KEYW 201722Z 2018/2118 13010KT P6SM SCT022 SCT080
     FM210200 11008KT P6SM SCT020 BKN080=



000
FTUS42 KKEY 201500 AAA
TAFEYW
TAF AMD
KEYW 201500Z 2015/2112 13010KT P6SM SCT025 SCT080
     FM210200 11007KT P6SM SCT025 BKN080=



000
FTUS42 KKEY 201500 AAA
TAFMTH
TAF AMD
KMTH 201500Z 2015/2112 14006KT P6SM FEW025 SCT080
     FM210200 10005KT P6SM SCT025 BKN080=



000
FTUS42 KKEY 201500 AAA
TAFEYW
TAF AMD
KEYW 201500Z 2015/2112 13010KT P6SM SCT025 SCT080
     FM210200 11007KT P6SM SCT025 BKN080=



000
FTUS42 KKEY 201100 RRA
TAFEYW
TAF
KEYW 201141Z 2012/2112 12009KT P6SM SCT025 SCT080=



000
FTUS42 KKEY 201100 RRA
TAFMTH
TAF
KMTH 201141Z 2012/2112 12007KT P6SM SCT025 SCT080=



000
FTUS42 KKEY 201100 RRA
TAFEYW
TAF
KEYW 201141Z 2012/2112 12009KT P6SM SCT025 SCT080=



000
FTUS42 KKEY 200900 AAA
TAFEYW
TAF AMD
KEYW 200901Z 2009/2106 12005KT P6SM SCT030 SCT100
     FM201200 09007KT P6SM SCT030
     FM202000 12009KT P6SM SCT025 BKN080=



000
FTUS42 KKEY 200900 AAA
TAFEYW
TAF AMD
KEYW 200901Z 2009/2106 12005KT P6SM SCT030 SCT100
     FM201200 09007KT P6SM SCT030
     FM202000 12009KT P6SM SCT025 BKN080=



000
FTUS42 KKEY 200500
TAFEYW
TAF
KEYW 200528Z 2006/2106 06005KT P6SM FEW023
     FM201200 10007KT P6SM SCT025
     FM202000 12009KT P6SM SCT025 BKN080=



000
FTUS42 KKEY 200500
TAFMTH
TAF
KMTH 200528Z 2006/2106 09003KT P6SM FEW023
     FM201000 10007KT P6SM SCT025
     FM202000 12009KT P6SM SCT025 BKN080=



000
FTUS42 KKEY 200500
TAFEYW
TAF
KEYW 200528Z 2006/2106 06005KT P6SM FEW023
     FM201200 10007KT P6SM SCT025
     FM202000 12009KT P6SM SCT025 BKN080=



000
FTUS42 KKEY 192300
TAFMTH
TAF
KMTH 192320Z 2000/2024 08003KT P6SM FEW035
     FM201200 11006KT P6SM FEW025=



000
FTUS42 KKEY 192300
TAFEYW
TAF
KEYW 192320Z 2000/2024 08005KT P6SM FEW030
     FM201400 11008KT P6SM FEW025=



000
FTUS42 KKEY 192300
TAFEYW
TAF
KEYW 192320Z 2000/2024 08005KT P6SM FEW030
     FM201400 11008KT P6SM FEW025=



000
FTUS42 KKEY 191700 RRA
TAFMTH
TAF
KMTH 191742Z 1918/2018 04007KT P6SM SKC
     FM192000 10008KT P6SM SKC
     FM200600 11005KT P6SM FEW025=



000
FTUS42 KKEY 191700 RRA
TAFEYW
TAF
KEYW 191742Z 1918/2018 04007KT P6SM SKC
     FM192100 08008KT P6SM SKC
     FM200600 11006KT P6SM FEW025=



000
FTUS42 KKEY 191700 RRA
TAFEYW
TAF
KEYW 191742Z 1918/2018 04007KT P6SM SKC
     FM192100 08008KT P6SM SKC
     FM200600 11006KT P6SM FEW025=



000
FTUS42 KKEY 191500 AAA
TAFEYW
TAF AMD
KEYW 191515Z 1915/2012 04010KT P6SM SKC
     FM191900 08008KT P6SM SKC=



000
FTUS42 KKEY 191100
TAFMTH
TAF
KMTH 191131Z 1912/2012 04007KT P6SM SKC
     FM192000 10008KT P6SM SKC=



000
FTUS42 KKEY 191100
TAFEYW
TAF
KEYW 191131Z 1912/2012 03004KT P6SM SKC
     FM192000 08008KT P6SM SKC=



000
FTUS42 KKEY 191100
TAFEYW
TAF
KEYW 191131Z 1912/2012 03004KT P6SM SKC
     FM192000 08008KT P6SM SKC=



000
FTUS42 KKEY 190500
TAFEYW
TAF
KEYW 190522Z 1906/2006 03004KT P6SM SKC
     FM192000 08008KT P6SM SKC=



000
FTUS42 KKEY 190500
TAFMTH
TAF
KMTH 190522Z 1906/2006 02007KT P6SM SKC
     FM192000 10008KT P6SM SKC=



000
FTUS42 KKEY 190500
TAFEYW
TAF
KEYW 190522Z 1906/2006 03004KT P6SM SKC
     FM192000 08008KT P6SM SKC=



000
FTUS42 KKEY 182300
TAFMTH
TAF
KMTH 182320Z 1900/1924 06004KT P6SM SKC=



000
FTUS42 KKEY 182300
TAFEYW
TAF
KEYW 182320Z 1900/1924 06006KT P6SM SKC=



000
FTUS42 KKEY 182300
TAFEYW
TAF
KEYW 182320Z 1900/1924 06006KT P6SM SKC=



000
FTUS42 KKEY 181700 RRA
TAFEYW
TAF
KEYW 181752Z 1818/1918 VRB04KT P6SM SKC
     FM182100 05004KT P6SM SKC=



000
FTUS42 KKEY 181700 RRA
TAFMTH
TAF
KMTH 181752Z 1818/1918 04004KT P6SM SKC=



000
FTUS42 KKEY 181700 RRA
TAFEYW
TAF
KEYW 181752Z 1818/1918 VRB04KT P6SM SKC
     FM182100 05004KT P6SM SKC=



000
FTUS42 KKEY 181500 AAB
TAFEYW
TAF AMD
KEYW 181525Z 1815/1912 VRB04KT P6SM SKC=



000
FTUS42 KKEY 181500 AAB
TAFEYW
TAF AMD
KEYW 181525Z 1815/1912 VRB04KT P6SM SKC=



    US Dept of Commerce
    National Oceanic and Atmospheric Administration
    National Weather Service
    1325 East West Highway
    Silver Spring, MD 20910
    Page Author: NWS Internet Services Team
Disclaimer
Information Quality
Credits
Glossary
Privacy Policy
Freedom of Information Act (FOIA)
About Us
Career Opportunities